| Date | Time | Temp. (oF) | Dew Point (oF) | Rel. Hum. (%) | Press. (in.) | Wind Dir. | Wind Speed (mph) | Hourly Rainfall (in.) |
|
|---|---|---|---|---|---|---|---|---|---|
| 1 | 06/01 | 00:00 | 67 | 54 | 64 | 29.91 | SSW | 0 | 0.00 |
| 2 | 05/31 | 23:00 | 70 | 54 | 59 | 29.90 | SSW | 0 | 0.00 |
| 3 | 05/31 | 22:00 | 72 | 53 | 52 | 29.90 | SSW | 0 | 0.00 |
| 4 | 05/31 | 21:00 | 76 | 51 | 42 | 29.88 | WSW | 0 | 0.00 |
| 5 | 05/31 | 20:00 | 82 | 51 | 35 | 29.86 | N | 0 | 0.00 |
| 6 | 05/31 | 19:00 | 84 | 49 | 31 | 29.85 | N | 0 | 0.00 |
| 7 | 05/31 | 18:00 | 84 | 50 | 32 | 29.85 | W | 0 | 0.00 |
| 8 | 05/31 | 17:00 | 86 | 51 | 31 | 29.85 | NNE | 0 | 0.00 |
| 9 | 05/31 | 16:00 | 86 | 52 | 32 | 29.86 | N | 0 | 0.00 |
| 10 | 05/31 | 15:00 | 85 | 51 | 32 | 29.87 | NNW | 1 | 0.00 |
| 11 | 05/31 | 14:00 | 85 | 53 | 35 | 29.89 | NE | 1 | 0.00 |
| 12 | 05/31 | 13:00 | 83 | 66 | 58 | 29.90 | SSE | 0 | 0.00 |
| 13 | 05/31 | 12:00 | 82 | 64 | 55 | 29.92 | ENE | 5 | 0.00 |
| 14 | 05/31 | 11:00 | 80 | 67 | 67 | 29.92 | NE | 0 | 0.00 |
| 15 | 05/31 | 10:00 | 78 | 70 | 78 | 29.92 | ESE | 5 | 0.00 |
| 16 | 05/31 | 09:00 | 73 | 72 | 100 | 29.92 | NNE | 7 | 0.00 |
| 17 | 05/31 | 08:00 | 69 | 68 | 100 | 29.91 | NNW | 3 | 0.00 |
| 18 | 05/31 | 07:00 | 66 | 66 | 100 | 29.91 | SSE | 0 | 0.00 |
| 19 | 05/31 | 06:00 | 66 | 66 | 100 | 29.90 | N | 0 | 0.00 |
| 20 | 05/31 | 05:00 | 66 | 66 | 100 | 29.89 | ESE | 0 | 0.00 |
| 21 | 05/31 | 04:00 | 66 | 66 | 100 | 29.88 | NNE | 0 | 0.00 |
| 22 | 05/31 | 03:00 | 67 | 67 | 100 | 29.89 | WSW | 0 | 0.00 |
| 23 | 05/31 | 02:00 | 67 | 67 | 100 | 29.88 | ESE | 0 | 0.00 |
| 24 | 05/31 | 01:00 | 67 | 67 | 100 | 29.89 | NE | 3 | 0.00 |